createdAt,value
2018-09-15T00:00:33.502Z,16.04
2018-09-15T00:01:33.521Z,16.08
2018-09-15T00:02:33.285Z,16.08
2018-09-15T00:03:33.570Z,16.08
2018-09-15T00:04:48.256Z,16.12
2018-09-15T00:05:33.623Z,16.21
2018-09-15T00:06:33.636Z,16.2
2018-09-15T00:07:33.446Z,16.2
2018-09-15T00:08:33.683Z,16.28
2018-09-15T00:09:33.187Z,16.24
2018-09-15T00:10:33.732Z,16.21
2018-09-15T00:11:33.744Z,16.17
2018-09-15T00:12:48.427Z,16.08
2018-09-15T00:13:33.790Z,16.12
2018-09-15T00:14:33.554Z,16.09
2018-09-15T00:15:33.835Z,16.09
2018-09-15T00:16:33.856Z,16.04
2018-09-15T00:17:33.931Z,16.01
2018-09-15T00:19:33.927Z,15.96
2018-09-15T00:21:33.969Z,15.94
2018-09-15T00:22:33.995Z,15.92
2018-09-15T00:23:34.012Z,15.87
2018-09-15T00:24:34.040Z,15.8
2018-09-15T00:25:33.799Z,15.74
2018-09-15T00:26:33.562Z,15.71
2018-09-15T00:27:34.101Z,15.75
2018-09-15T00:28:33.931Z,15.68
2018-09-15T00:29:34.144Z,15.62
2018-09-15T00:30:34.165Z,15.62
2018-09-15T00:31:34.189Z,15.57
2018-09-15T00:32:34.213Z,15.57
2018-09-15T00:33:34.231Z,15.49
2018-09-15T00:34:33.997Z,15.47
2018-09-15T00:35:34.277Z,15.46
2018-09-15T00:37:34.324Z,15.46
2018-09-15T00:38:34.347Z,15.41
2018-09-15T00:39:34.365Z,15.31
2018-09-15T00:40:34.395Z,15.29
2018-09-15T00:41:34.408Z,15.29
2018-09-15T00:42:34.429Z,15.21
2018-09-15T00:43:34.545Z,15.25
2018-09-15T00:44:49.136Z,15.09
2018-09-15T00:45:49.157Z,15.16
2018-09-15T00:46:49.178Z,15.11
2018-09-15T00:47:34.544Z,15.16
2018-09-15T00:48:34.563Z,15.09
2018-09-15T00:49:34.589Z,15.09
2018-09-15T00:50:34.605Z,15.11
2018-09-15T00:51:34.373Z,15.06
2018-09-15T00:53:34.671Z,15.06
2018-09-15T00:54:34.438Z,15.02
2018-09-15T00:55:34.717Z,14.95
2018-09-15T00:56:34.483Z,14.99
2018-09-15T00:57:34.760Z,14.91
2018-09-15T00:59:34.856Z,14.73
2018-09-15T01:00:34.568Z,14.89
2018-09-15T01:01:34.592Z,14.77
2018-09-15T01:02:34.875Z,14.77
2018-09-15T01:03:34.894Z,14.77
2018-09-15T01:04:34.917Z,14.7
2018-09-15T01:05:34.935Z,14.73
2018-09-15T01:06:34.699Z,14.75
2018-09-15T01:08:49.667Z,14.69
2018-09-15T01:09:35.023Z,14.64
2018-09-15T01:10:35.053Z,14.69
2018-09-15T01:11:35.068Z,14.62
2018-09-15T01:12:35.088Z,14.64
2018-09-15T01:13:35.117Z,14.65
2018-09-15T01:14:35.392Z,14.65
2018-09-15T01:15:35.159Z,14.68
2018-09-15T01:16:49.838Z,14.6
2018-09-15T01:17:35.201Z,14.69
2018-09-15T01:18:35.220Z,14.62
2018-09-15T01:19:35.243Z,14.65
2018-09-15T01:20:35.263Z,14.62
2018-09-15T01:21:35.032Z,14.62
2018-09-15T01:22:35.064Z,14.64
2018-09-15T01:23:35.333Z,14.54
2018-09-15T01:24:50.018Z,14.52
2018-09-15T01:25:35.376Z,14.64
2018-09-15T01:26:34.930Z,14.58
2018-09-15T01:27:35.162Z,14.52
2018-09-15T01:28:35.443Z,14.64
2018-09-15T01:30:50.147Z,14.52
2018-09-15T01:31:35.504Z,14.55
2018-09-15T01:32:35.538Z,14.6
2018-09-15T01:33:50.209Z,14.64
2018-09-15T01:34:35.676Z,14.51
2018-09-15T01:35:35.338Z,14.51
2018-09-15T01:36:35.613Z,14.55
2018-09-15T01:37:35.636Z,14.46
2018-09-15T01:38:35.660Z,14.39
2018-09-15T01:39:50.351Z,14.29
2018-09-15T01:40:35.699Z,14.36
2018-09-15T01:42:35.743Z,14.35
2018-09-15T01:43:35.777Z,14.36
2018-09-15T01:44:35.802Z,14.17
2018-09-15T01:45:35.554Z,14.29
2018-09-15T01:46:35.832Z,14.33
2018-09-15T01:47:35.861Z,14.22
2018-09-15T01:48:35.874Z,14.2
2018-09-15T01:49:35.901Z,14.18
2018-09-15T01:50:35.664Z,14.14
2018-09-15T01:51:35.687Z,14.24
2018-09-15T01:52:35.966Z,14.25
2018-09-15T01:53:35.984Z,14.15
2018-09-15T01:54:36.008Z,14
2018-09-15T01:55:36.032Z,14.12
2018-09-15T01:56:36.054Z,14.02
2018-09-15T01:57:36.377Z,14.06
2018-09-15T01:58:36.116Z,14.07
2018-09-15T01:59:36.115Z,14.06
2018-09-15T02:00:35.891Z,13.95
2018-09-15T02:01:35.904Z,14.02
2018-09-15T02:02:36.179Z,14.02
2018-09-15T02:03:36.205Z,13.97
2018-09-15T02:04:50.885Z,13.95
2018-09-15T02:05:36.247Z,13.97
2018-09-15T02:06:36.270Z,13.95
2018-09-15T02:07:36.034Z,13.97
2018-09-15T02:08:36.318Z,13.95
2018-09-15T02:09:36.333Z,13.95
2018-09-15T02:10:36.206Z,13.89
2018-09-15T02:11:51.043Z,13.77
2018-09-15T02:12:36.397Z,13.67
2018-09-15T02:13:36.420Z,13.63
2018-09-15T02:14:36.183Z,13.67
2018-09-15T02:16:36.483Z,13.55
2018-09-15T02:17:36.505Z,13.54
2018-09-15T02:18:36.531Z,13.57
2018-09-15T02:19:36.549Z,13.51
2018-09-15T02:20:36.570Z,13.55
2018-09-15T02:21:36.596Z,13.48
2018-09-15T02:22:36.811Z,13.46
2018-09-15T02:23:36.379Z,13.48
2018-09-15T02:24:36.403Z,13.48
2018-09-15T02:25:36.429Z,13.46
2018-09-15T02:26:36.709Z,13.49
2018-09-15T02:27:51.382Z,13.41
2018-09-15T02:28:36.742Z,13.33
2018-09-15T02:29:36.765Z,13.32
2018-09-15T02:30:36.792Z,13.17
2018-09-15T02:31:36.812Z,13.23
2018-09-15T02:32:36.834Z,13.19
2018-09-15T02:33:36.855Z,13.23
2018-09-15T02:34:36.884Z,13.15
2018-09-15T02:35:36.893Z,13.22
2018-09-15T02:36:36.659Z,13.33
2018-09-15T02:37:51.341Z,13.22
2018-09-15T02:38:36.963Z,13.2
2018-09-15T02:39:36.725Z,13.2
2018-09-15T02:40:36.744Z,13.17
2018-09-15T02:41:37.126Z,13.14
2018-09-15T02:42:36.788Z,13.15
2018-09-15T02:43:51.724Z,13.15
2018-09-15T02:45:36.854Z,13.14
2018-09-15T02:47:36.889Z,13.04
2018-09-15T02:48:37.173Z,13.03
2018-09-15T02:49:36.935Z,13.05
2018-09-15T02:50:36.961Z,13.05
2018-09-15T02:51:51.896Z,13.05
2018-09-15T02:52:51.919Z,13.04
2018-09-15T02:53:37.282Z,13.05
2018-09-15T02:54:37.115Z,13.01
2018-09-15T02:55:37.366Z,13.01
2018-09-15T02:56:37.358Z,12.92
2018-09-15T02:57:37.372Z,12.92
2018-09-15T02:58:37.128Z,12.93
2018-09-15T02:59:52.067Z,12.87
2018-09-15T03:00:37.428Z,12.9
2018-09-15T03:01:37.451Z,12.9
2018-09-15T03:02:37.475Z,12.87
2018-09-15T03:03:37.492Z,12.87
2018-09-15T03:04:37.523Z,12.82
2018-09-15T03:05:37.540Z,12.85
2018-09-15T03:06:37.296Z,12.86
2018-09-15T03:07:37.577Z,12.89
2018-09-15T03:08:37.613Z,12.87
2018-09-15T03:09:37.620Z,12.85
2018-09-15T03:10:37.786Z,12.72
2018-09-15T03:11:37.660Z,12.74
2018-09-15T03:12:37.696Z,12.64
2018-09-15T03:13:37.738Z,12.7
2018-09-15T03:14:52.392Z,12.75
2018-09-15T03:15:37.487Z,12.74
2018-09-15T03:17:37.535Z,12.67
2018-09-15T03:18:37.812Z,12.68
2018-09-15T03:19:37.831Z,12.57
2018-09-15T03:20:37.855Z,12.59
2018-09-15T03:21:37.880Z,12.54
2018-09-15T03:22:37.896Z,12.52
2018-09-15T03:23:52.590Z,12.53
2018-09-15T03:24:52.594Z,12.56
2018-09-15T03:25:37.962Z,12.49
2018-09-15T03:26:37.736Z,12.49
2018-09-15T03:27:37.740Z,12.46
2018-09-15T03:28:38.019Z,12.46
2018-09-15T03:29:38.047Z,12.52
2018-09-15T03:30:37.805Z,12.45
2018-09-15T03:31:38.093Z,12.49
2018-09-15T03:32:52.836Z,12.53
2018-09-15T03:33:37.869Z,12.49
2018-09-15T03:35:38.166Z,12.42
2018-09-15T03:36:37.932Z,12.42
2018-09-15T03:37:38.209Z,12.45
2018-09-15T03:38:38.233Z,12.45
2018-09-15T03:39:38.250Z,12.47
2018-09-15T03:40:38.278Z,12.47
2018-09-15T03:41:38.900Z,12.42
2018-09-15T03:42:38.313Z,12.38
2018-09-15T03:43:38.337Z,12.35
2018-09-15T03:44:38.369Z,12.38
2018-09-15T03:45:38.382Z,12.37
2018-09-15T03:46:53.108Z,12.42
2018-09-15T03:47:38.161Z,12.37
2018-09-15T03:48:37.929Z,12.38
2018-09-15T03:49:38.471Z,12.35
2018-09-15T03:50:38.235Z,12.32
2018-09-15T03:51:38.245Z,12.32
2018-09-15T03:52:38.525Z,12.37
2018-09-15T03:53:38.292Z,12.27
2018-09-15T03:54:38.575Z,12.31
2018-09-15T03:55:38.333Z,12.35
2018-09-15T03:56:53.276Z,12.24
2018-09-15T03:57:38.626Z,12.34
2018-09-15T03:58:38.648Z,12.35
2018-09-15T03:59:38.412Z,12.24
2018-09-15T04:00:38.693Z,12.32
2018-09-15T04:01:38.454Z,12.28
2018-09-15T04:02:53.393Z,12.21
2018-09-15T04:03:38.756Z,12.37
2018-09-15T04:04:38.774Z,12.21
2018-09-15T04:05:38.799Z,12.24
2018-09-15T04:06:38.832Z,12.24
2018-09-15T04:07:38.837Z,12.24
2018-09-15T04:08:38.857Z,12.24
2018-09-15T04:09:38.618Z,12.27
2018-09-15T04:10:38.900Z,12.23
2018-09-15T04:11:38.665Z,12.28
2018-09-15T04:12:53.600Z,12.28
2018-09-15T04:13:38.966Z,12.28
2018-09-15T04:14:38.980Z,12.28
2018-09-15T04:16:38.774Z,12.24
2018-09-15T04:17:38.788Z,12.27
2018-09-15T04:18:53.725Z,12.28
2018-09-15T04:19:39.098Z,12.27
2018-09-15T04:21:39.129Z,12.23
2018-09-15T04:22:38.892Z,12.27
2018-09-15T04:23:39.176Z,12.28
2018-09-15T04:24:39.189Z,12.23
2018-09-15T04:25:39.217Z,12.23
2018-09-15T04:26:39.245Z,12.24
2018-09-15T04:27:39.255Z,12.27
2018-09-15T04:28:39.498Z,12.27
2018-09-15T04:29:39.038Z,12.29
2018-09-15T04:30:39.057Z,12.19
2018-09-15T04:31:39.087Z,12.16
2018-09-15T04:32:39.103Z,12.29
2018-09-15T04:33:39.384Z,12.29
2018-09-15T04:34:54.057Z,12.23
2018-09-15T04:35:38.904Z,12.28
2018-09-15T04:36:39.446Z,12.31
2018-09-15T04:37:39.459Z,12.29
2018-09-15T04:38:54.145Z,12.45
2018-09-15T04:39:39.507Z,12.39
2018-09-15T04:40:39.529Z,12.52
2018-09-15T04:41:39.609Z,12.62
2018-09-15T04:42:39.308Z,12.52
2018-09-15T04:43:54.244Z,12.65
2018-09-15T04:44:39.610Z,12.67
2018-09-15T04:45:39.622Z,12.78
2018-09-15T04:46:39.642Z,12.74
2018-09-15T04:47:39.406Z,12.87
2018-09-15T04:48:39.691Z,12.87
2018-09-15T04:49:54.369Z,12.93
2018-09-15T04:50:39.474Z,12.97
2018-09-15T04:52:40.089Z,13.2
2018-09-15T04:53:39.795Z,13.2
2018-09-15T04:54:39.813Z,13.23
2018-09-15T04:55:39.841Z,13.2
2018-09-15T04:56:39.869Z,13.32
2018-09-15T04:57:54.537Z,13.29
2018-09-15T04:58:40.155Z,13.48
2018-09-15T04:59:39.916Z,13.46
2018-09-15T05:00:39.680Z,13.62
2018-09-15T05:02:39.734Z,13.54
2018-09-15T05:03:39.997Z,13.54
2018-09-15T05:04:40.022Z,13.51
2018-09-15T05:05:40.040Z,13.54
2018-09-15T05:06:40.369Z,13.64
2018-09-15T05:07:40.082Z,13.66
2018-09-15T05:08:40.106Z,13.64
2018-09-15T05:09:40.140Z,13.67
2018-09-15T05:10:40.145Z,13.81
2018-09-15T05:11:40.169Z,13.73
2018-09-15T05:12:40.544Z,13.88
2018-09-15T05:13:40.224Z,13.91
2018-09-15T05:14:40.233Z,13.91
2018-09-15T05:15:40.255Z,13.89
2018-09-15T05:17:40.293Z,14.06
2018-09-15T05:18:40.316Z,14.12
2018-09-15T05:19:40.083Z,14.12
2018-09-15T05:20:40.365Z,14.14
2018-09-15T05:21:55.036Z,14.2
2018-09-15T05:24:40.443Z,14.35
2018-09-15T05:25:40.464Z,14.4
2018-09-15T05:26:40.484Z,14.36
2018-09-15T05:27:40.507Z,14.46
2018-09-15T05:28:40.530Z,14.43
2018-09-15T05:29:40.555Z,14.39
2018-09-15T05:30:40.583Z,14.4
2018-09-15T05:31:40.950Z,14.46
2018-09-15T05:32:40.610Z,14.46
2018-09-15T05:33:40.632Z,14.45
2018-09-15T05:34:40.137Z,14.4
2018-09-15T05:35:40.673Z,14.43
2018-09-15T05:36:40.696Z,14.4
2018-09-15T05:37:55.384Z,14.46
2018-09-15T05:38:40.736Z,14.5
2018-09-15T05:39:40.502Z,14.46
2018-09-15T05:40:40.522Z,14.51
2018-09-15T05:41:40.547Z,14.52
2018-09-15T05:42:40.822Z,14.46
2018-09-15T05:43:40.845Z,14.61
2018-09-15T05:44:40.866Z,14.73
2018-09-15T05:45:40.889Z,14.69
2018-09-15T05:46:55.570Z,14.72
2018-09-15T05:47:40.929Z,14.77
2018-09-15T05:48:55.610Z,14.86
2018-09-15T05:49:41.141Z,14.92
2018-09-15T05:50:41.026Z,15.06
2018-09-15T05:51:41.018Z,15.1
2018-09-15T05:52:40.783Z,15.1
2018-09-15T05:53:55.461Z,15.16
2018-09-15T05:54:41.081Z,15.21
2018-09-15T05:55:41.107Z,15.27
2018-09-15T05:56:41.128Z,15.31
2018-09-15T05:57:41.150Z,15.21
2018-09-15T05:58:41.172Z,15.39
2018-09-15T05:59:41.193Z,15.47
2018-09-15T06:00:41.505Z,15.53
2018-09-15T06:01:41.583Z,15.56
2018-09-15T06:02:41.273Z,15.57
2018-09-15T06:03:41.277Z,15.53
2018-09-15T06:04:41.301Z,15.68
2018-09-15T06:05:41.061Z,15.62
2018-09-15T06:07:41.175Z,15.75
2018-09-15T06:08:41.393Z,15.86
2018-09-15T06:09:56.074Z,15.83
2018-09-15T06:10:56.100Z,15.87
2018-09-15T06:11:41.457Z,16
2018-09-15T06:12:41.476Z,15.93
2018-09-15T06:13:41.609Z,15.93
2018-09-15T06:14:56.192Z,16.07
2018-09-15T06:16:41.578Z,16.43
2018-09-15T06:17:56.250Z,16.7
2018-09-15T06:18:56.014Z,16.79
2018-09-15T06:19:41.632Z,16.93
2018-09-15T06:20:41.402Z,17.21
2018-09-15T06:21:41.684Z,17.31
2018-09-15T06:22:41.448Z,17.36
2018-09-15T06:24:56.412Z,17.59
2018-09-15T06:26:41.800Z,17.58
2018-09-15T06:27:41.928Z,17.79
2018-09-15T06:28:56.513Z,17.79
2018-09-15T06:29:41.875Z,17.89
2018-09-15T06:30:41.894Z,17.97
2018-09-15T06:31:41.665Z,18.07
2018-09-15T06:32:41.689Z,18.21
2018-09-15T06:33:41.972Z,18.33
2018-09-15T06:34:41.891Z,18.41
2018-09-15T06:35:42.023Z,18.48
2018-09-15T06:36:42.048Z,18.57
2018-09-15T06:37:42.076Z,18.51
2018-09-15T06:38:42.099Z,18.73
2018-09-15T06:39:42.126Z,18.94
2018-09-15T06:40:42.160Z,19.02
2018-09-15T06:41:42.231Z,19.29
2018-09-15T06:42:41.947Z,19.56
2018-09-15T06:43:42.234Z,19.66
2018-09-15T06:44:42.260Z,19.74
2018-09-15T06:45:42.327Z,20.01
2018-09-15T06:46:42.314Z,19.74
2018-09-15T06:47:42.341Z,19.61
2018-09-15T06:48:42.367Z,19.68
2018-09-15T06:49:41.880Z,19.56
2018-09-15T06:50:56.826Z,19.63
2018-09-15T06:51:42.451Z,19.73
2018-09-15T06:52:42.482Z,20.02
2018-09-15T06:53:42.673Z,19.87
2018-09-15T06:54:42.533Z,19.76
2018-09-15T06:55:42.600Z,19.66
2018-09-15T06:56:57.266Z,19.59
2018-09-15T06:57:42.644Z,19.69
2018-09-15T06:59:42.684Z,19.73
2018-09-15T07:00:42.763Z,19.92
2018-09-15T07:01:42.740Z,20.13
2018-09-15T07:02:42.770Z,20.2
2018-09-15T07:03:42.793Z,20.36
2018-09-15T07:04:42.559Z,20.32
2018-09-15T07:05:42.849Z,20.2
2018-09-15T07:06:42.879Z,20.24
2018-09-15T07:07:42.748Z,20.33
2018-09-15T07:09:42.966Z,20.91
2018-09-15T07:10:43.000Z,21.16
2018-09-15T07:11:43.025Z,21.25
2018-09-15T07:12:57.797Z,21.1
2018-09-15T07:13:42.681Z,21.16
2018-09-15T07:14:42.862Z,21.31
2018-09-15T07:15:42.627Z,20.97
2018-09-15T07:16:43.173Z,20.85
2018-09-15T07:17:43.207Z,20.89
2018-09-15T07:18:43.233Z,21.21
2018-09-15T07:19:43.265Z,21.25
2018-09-15T07:20:57.959Z,21.04
2018-09-15T07:21:43.328Z,21.16
2018-09-15T07:22:58.018Z,20.69
2018-09-15T07:23:43.388Z,20.91
2018-09-15T07:24:43.418Z,21.34
2018-09-15T07:25:43.223Z,21.52
2018-09-15T07:26:43.482Z,21.56
2018-09-15T07:27:43.249Z,21.58
2018-09-15T07:28:58.202Z,21.65
2018-09-15T07:29:43.315Z,21.58
2018-09-15T07:30:43.600Z,21.61
2018-09-15T07:31:43.756Z,21.61
2018-09-15T07:33:43.693Z,21.71
2018-09-15T07:34:43.891Z,21.9
2018-09-15T07:35:43.756Z,22.05
2018-09-15T07:36:58.451Z,22.07
2018-09-15T07:37:44.125Z,22.17
2018-09-15T07:38:43.851Z,22.27
2018-09-15T07:39:43.888Z,22.27
2018-09-15T07:40:43.910Z,22.33
2018-09-15T07:41:43.943Z,22.43
2018-09-15T07:42:43.969Z,22.43
2018-09-15T07:43:43.753Z,22.68
2018-09-15T07:44:58.702Z,22.64
2018-09-15T07:45:44.065Z,22.75
2018-09-15T07:46:44.105Z,22.85
2018-09-15T07:47:44.130Z,22.75
2018-09-15T07:48:43.909Z,22.94
2018-09-15T07:49:44.196Z,22.97
2018-09-15T07:50:44.219Z,22.95
2018-09-15T07:51:44.374Z,22.8
2018-09-15T07:52:44.286Z,23
2018-09-15T07:53:44.316Z,23.12
2018-09-15T07:54:44.343Z,23.07
2018-09-15T07:55:44.376Z,23.05
2018-09-15T07:56:44.405Z,23.25
2018-09-15T07:57:44.389Z,23.1
2018-09-15T07:58:44.212Z,22.92
2018-09-15T07:59:59.167Z,22.58
2018-09-15T08:00:44.533Z,22.62
2018-09-15T08:01:44.569Z,22.49
2018-09-15T08:02:44.333Z,22.42
2018-09-15T08:03:44.368Z,22.39
2018-09-15T08:04:44.654Z,22.47
2018-09-15T08:05:44.691Z,22.57
2018-09-15T08:06:44.456Z,22.33
2018-09-15T08:07:44.748Z,22.37
2018-09-15T08:08:44.522Z,22.64
2018-09-15T08:09:59.213Z,22.73
2018-09-15T08:10:44.581Z,22.6
2018-09-15T08:12:44.997Z,22.72
2018-09-15T08:13:44.672Z,22.72
2018-09-15T08:14:44.967Z,22.61
2018-09-15T08:15:44.990Z,22.76
2018-09-15T08:16:45.020Z,22.58
2018-09-15T08:19:45.127Z,22.98
2018-09-15T08:20:45.324Z,23.07
2018-09-15T08:21:45.176Z,23.35
2018-09-15T08:22:45.212Z,23.5
2018-09-15T08:23:45.237Z,23.25
2018-09-15T08:24:45.263Z,23.04
2018-09-15T08:25:45.041Z,23.28
2018-09-15T08:26:45.331Z,23.43
2018-09-15T08:27:45.141Z,23.19
2018-09-15T08:28:45.129Z,23.31
2018-09-15T08:29:45.416Z,23.28
2018-09-15T08:30:45.442Z,23.4
2018-09-15T08:32:00.265Z,22.98
2018-09-15T08:32:45.508Z,22.95
2018-09-15T08:33:45.548Z,23.22
2018-09-15T08:35:45.603Z,23.12
2018-09-15T08:36:45.633Z,23.27
2018-09-15T08:37:45.711Z,23.28
2018-09-15T08:38:45.437Z,22.98
2018-09-15T08:39:45.465Z,23.12
2018-09-15T08:40:45.743Z,23.27
2018-09-15T08:42:00.435Z,23.07
2018-09-15T08:42:45.812Z,22.98
2018-09-15T08:43:45.849Z,23.16
2018-09-15T08:44:45.867Z,23.38
2018-09-15T08:45:45.890Z,23.27
2018-09-15T08:46:45.921Z,23.02
2018-09-15T08:48:00.719Z,23.05
2018-09-15T08:48:45.989Z,23.16
2018-09-15T08:50:45.523Z,23.12
2018-09-15T08:51:46.069Z,23.19
2018-09-15T08:52:46.099Z,23.32
2018-09-15T08:53:46.133Z,23.27
2018-09-15T08:54:45.907Z,23.04
2018-09-15T08:56:00.878Z,23.07
2018-09-15T08:57:00.878Z,23.35
2018-09-15T08:57:46.246Z,23.15
2018-09-15T08:58:46.280Z,23.35
2018-09-15T08:59:46.303Z,23.51
2018-09-15T09:00:46.336Z,23.12
2018-09-15T09:01:46.105Z,22.9
2018-09-15T09:02:46.134Z,23.02
2018-09-15T09:04:01.086Z,23.12
2018-09-15T09:04:46.451Z,23.53
2018-09-15T09:06:46.512Z,23.66
2018-09-15T09:07:46.536Z,23.57
2018-09-15T09:08:46.565Z,23.69
2018-09-15T09:09:46.594Z,23.72
2018-09-15T09:10:46.373Z,24
2018-09-15T09:12:01.316Z,24.22
2018-09-15T09:12:46.687Z,24.3
2018-09-15T09:13:46.711Z,24.6
2018-09-15T09:14:46.740Z,24.52
2018-09-15T09:15:46.511Z,24.55
2018-09-15T09:16:46.541Z,24.35
2018-09-15T09:17:46.571Z,24.34
2018-09-15T09:18:46.597Z,24.45
2018-09-15T09:20:01.823Z,24.55
2018-09-15T09:20:46.916Z,24.5
2018-09-15T09:22:01.613Z,24.57
2018-09-15T09:22:46.973Z,24.55
2018-09-15T09:23:47.006Z,24.61
2018-09-15T09:24:46.776Z,24.3
2018-09-15T09:25:47.173Z,24.46
2018-09-15T09:26:47.424Z,24.78
2018-09-15T09:27:47.117Z,24.87
2018-09-15T09:28:47.150Z,24.65
2018-09-15T09:29:47.181Z,24.9
2018-09-15T09:30:46.951Z,25.14
2018-09-15T09:32:47.007Z,25.15
2018-09-15T09:33:47.292Z,25.1
2018-09-15T09:35:47.353Z,25.24
2018-09-15T09:37:47.410Z,24.4
2018-09-15T09:38:47.181Z,24.2
2018-09-15T09:39:47.466Z,23.48
2018-09-15T09:40:47.500Z,23.46
2018-09-15T09:41:47.524Z,23.46
2018-09-15T09:42:47.554Z,23.43
2018-09-15T09:43:47.585Z,23.53
2018-09-15T09:44:47.611Z,23.66
2018-09-15T09:45:47.381Z,23.9
2018-09-15T09:46:47.667Z,24.25
2018-09-15T09:47:47.804Z,24.55
2018-09-15T09:48:47.820Z,24.16
2018-09-15T09:49:47.749Z,24.49
2018-09-15T09:50:47.521Z,24.22
2018-09-15T09:51:47.558Z,23.83
2018-09-15T09:52:47.893Z,23.51
2018-09-15T09:53:47.604Z,23.28
2018-09-15T09:55:47.920Z,23.23
2018-09-15T09:56:47.688Z,23.54
2018-09-15T09:57:47.973Z,23.73
2018-09-15T09:58:48.001Z,23.7
2018-09-15T09:59:48.031Z,23.65
2018-09-15T10:00:47.800Z,23.8
2018-09-15T10:01:48.100Z,24.08
2018-09-15T10:02:48.122Z,24.13
2018-09-15T10:03:47.883Z,24.42
2018-09-15T10:04:48.168Z,24.13
2018-09-15T10:05:47.936Z,23.79
2018-09-15T10:07:02.931Z,23.58
2018-09-15T10:07:48.339Z,23.25
2018-09-15T10:08:48.301Z,23
2018-09-15T10:09:48.047Z,23.13
2018-09-15T10:10:48.339Z,23.28
2018-09-15T10:11:48.363Z,23.47
2018-09-15T10:12:48.133Z,23.47
2018-09-15T10:13:48.418Z,23.46
2018-09-15T10:14:48.547Z,22.97
2018-09-15T10:15:48.574Z,22.68
2018-09-15T10:16:48.501Z,22.76
2018-09-15T10:17:48.536Z,22.7
2018-09-15T10:18:48.552Z,22.68
2018-09-15T10:19:48.693Z,22.54
2018-09-15T10:20:48.605Z,22.58
2018-09-15T10:21:48.681Z,22.79
2018-09-15T10:23:03.324Z,22.9
2018-09-15T10:23:48.431Z,22.95
2018-09-15T10:25:48.745Z,23.2
2018-09-15T10:26:48.772Z,23.07
2018-09-15T10:28:48.828Z,22.86
2018-09-15T10:29:48.592Z,23.13
2018-09-15T10:31:03.541Z,23.25
2018-09-15T10:31:48.903Z,23.35
2018-09-15T10:32:48.929Z,23.58
2018-09-15T10:33:48.960Z,23.43
2018-09-15T10:34:48.725Z,23.31
2018-09-15T10:35:49.008Z,23.36
2018-09-15T10:36:49.039Z,23.33
2018-09-15T10:37:48.807Z,22.97
2018-09-15T10:39:03.754Z,22.98
2018-09-15T10:39:49.116Z,22.9
2018-09-15T10:41:49.178Z,22.72
2018-09-15T10:42:49.194Z,22.76
2018-09-15T10:43:49.226Z,22.97
2018-09-15T10:44:49.255Z,22.88
2018-09-15T10:46:04.043Z,22.75
2018-09-15T10:46:49.577Z,22.68
2018-09-15T10:47:49.383Z,22.58
2018-09-15T10:49:03.758Z,22.68
2018-09-15T10:50:04.042Z,23.04
2018-09-15T10:50:49.152Z,22.92
2018-09-15T10:51:49.178Z,22.95
2018-09-15T10:52:49.204Z,22.82
2018-09-15T10:53:49.232Z,22.62
2018-09-15T10:55:49.539Z,22.91
2018-09-15T10:56:49.577Z,22.91
2018-09-15T10:57:49.590Z,22.79
2018-09-15T10:58:49.651Z,22.97
2018-09-15T10:59:49.642Z,22.94
2018-09-15T11:00:49.820Z,23.02
2018-09-15T11:01:49.442Z,23.15
2018-09-15T11:02:49.716Z,23.12
2018-09-15T11:04:04.506Z,23.32
2018-09-15T11:04:49.820Z,23.39
2018-09-15T11:05:49.902Z,23.27
2018-09-15T11:06:49.923Z,23.54
2018-09-15T11:07:49.849Z,23.66
2018-09-15T11:08:49.878Z,23.54
2018-09-15T11:10:04.304Z,23.28
2018-09-15T11:10:49.670Z,23.43
2018-09-15T11:11:49.959Z,23.04
2018-09-15T11:12:49.989Z,22.97
2018-09-15T11:13:50.360Z,22.97
2018-09-15T11:14:49.778Z,22.97
2018-09-15T11:15:49.802Z,23.09
2018-09-15T11:16:50.083Z,23.33
2018-09-15T11:17:49.591Z,23.31
2018-09-15T11:18:50.135Z,23.13
2018-09-15T11:19:50.170Z,23.31
2018-09-15T11:20:49.930Z,23.4
2018-09-15T11:21:50.213Z,23.16
2018-09-15T11:22:49.772Z,23
2018-09-15T11:23:50.005Z,23.07
2018-09-15T11:24:50.028Z,22.98
2018-09-15T11:25:50.055Z,23.02
2018-09-15T11:26:50.084Z,23.13
2018-09-15T11:28:50.195Z,23.16
2018-09-15T11:29:50.157Z,23.01
2018-09-15T11:30:50.184Z,23.12
2018-09-15T11:31:50.466Z,23.31
2018-09-15T11:32:50.235Z,23.16
2018-09-15T11:33:50.515Z,23.27
2018-09-15T11:34:50.547Z,23.25
2018-09-15T11:35:50.567Z,23.25
2018-09-15T11:36:50.593Z,23.47
2018-09-15T11:37:50.628Z,23.75
2018-09-15T11:38:50.741Z,23.8
2018-09-15T11:39:50.670Z,23.8
2018-09-15T11:40:50.438Z,23.6
2018-09-15T11:42:05.384Z,23.7
2018-09-15T11:42:50.750Z,23.69
2018-09-15T11:43:50.607Z,23.73
2018-09-15T11:45:50.822Z,23.6
2018-09-15T11:46:50.590Z,23.55
2018-09-15T11:47:50.689Z,23.57
2018-09-15T11:49:50.669Z,23.42
2018-09-15T11:50:50.966Z,23.65
2018-09-15T11:51:50.974Z,23.7
2018-09-15T11:52:51.009Z,23.83
2018-09-15T11:53:51.281Z,23.72
2018-09-15T11:54:51.056Z,23.73
2018-09-15T11:55:51.080Z,23.6
2018-09-15T11:56:51.104Z,23.65
2018-09-15T11:58:05.535Z,23.76
2018-09-15T11:58:51.155Z,23.65
2018-09-15T12:01:51.287Z,23.68
2018-09-15T12:02:51.258Z,23.57
2018-09-15T12:03:51.294Z,23.42
2018-09-15T12:04:51.314Z,23.38
2018-09-15T12:05:51.082Z,23.35
2018-09-15T12:06:51.361Z,23.43
2018-09-15T12:07:51.631Z,23.73
2018-09-15T12:08:51.416Z,23.72
2018-09-15T12:09:51.438Z,23.63
2018-09-15T12:11:51.499Z,23.55
2018-09-15T12:12:51.521Z,23.38
2018-09-15T12:14:06.244Z,23.12
2018-09-15T12:15:51.587Z,23.28
2018-09-15T12:16:51.616Z,23.19
2018-09-15T12:17:51.381Z,23.25
2018-09-15T12:18:51.670Z,23.31
2018-09-15T12:19:51.437Z,23.23
2018-09-15T12:20:51.725Z,23.25
2018-09-15T12:21:52.041Z,23.2
2018-09-15T12:22:51.784Z,23.16
2018-09-15T12:23:51.845Z,23.33
2018-09-15T12:24:51.825Z,23.35
2018-09-15T12:25:51.586Z,23.33
2018-09-15T12:26:51.614Z,23.48
2018-09-15T12:27:52.102Z,23.65
2018-09-15T12:28:51.921Z,23.68
2018-09-15T12:30:06.606Z,23.79
2018-09-15T12:32:52.025Z,23.46
2018-09-15T12:33:52.049Z,23.23
2018-09-15T12:34:52.074Z,23.04
2018-09-15T12:35:52.097Z,23.27
2018-09-15T12:36:52.128Z,23.68
2018-09-15T12:38:06.812Z,23.61
2018-09-15T12:39:52.201Z,23.73
2018-09-15T12:40:52.225Z,23.69
2018-09-15T12:41:52.252Z,23.69
2018-09-15T12:42:52.287Z,23.73
2018-09-15T12:43:52.307Z,23.83
2018-09-15T12:45:52.097Z,23.66
2018-09-15T12:46:52.379Z,23.78
2018-09-15T12:47:52.409Z,23.85
2018-09-15T12:48:52.432Z,23.9
2018-09-15T12:49:52.199Z,23.88
2018-09-15T12:50:52.480Z,23.93
2018-09-15T12:51:52.309Z,23.87
2018-09-15T12:52:52.300Z,23.85
2018-09-15T12:53:52.560Z,23.85
2018-09-15T12:55:07.244Z,23.9
2018-09-15T12:55:52.353Z,23.6
2018-09-15T12:56:52.635Z,23.84
2018-09-15T12:57:52.845Z,23.84
2018-09-15T12:58:52.687Z,23.83
2018-09-15T12:59:52.710Z,23.76
2018-09-15T13:00:52.741Z,23.79
2018-09-15T13:01:52.509Z,23.69
2018-09-15T13:02:52.786Z,23.68
2018-09-15T13:03:52.813Z,23.6
2018-09-15T13:04:52.840Z,23.65
2018-09-15T13:05:52.866Z,23.91
2018-09-15T13:06:52.893Z,23.8
2018-09-15T13:07:52.915Z,23.95
2018-09-15T13:08:52.949Z,23.76
2018-09-15T13:10:07.628Z,23.73
2018-09-15T13:10:53.000Z,23.8
2018-09-15T13:11:52.760Z,24
2018-09-15T13:12:53.043Z,24.1
2018-09-15T13:13:52.811Z,24.12
2018-09-15T13:14:53.272Z,24.2
2018-09-15T13:15:53.123Z,23.98
2018-09-15T13:17:07.549Z,24
2018-09-15T13:17:53.171Z,23.97
2018-09-15T13:18:53.214Z,23.88
2018-09-15T13:19:53.224Z,23.94
2018-09-15T13:20:53.254Z,23.79
2018-09-15T13:21:53.271Z,23.85
2018-09-15T13:22:53.299Z,23.9
2018-09-15T13:23:53.604Z,23.84
2018-09-15T13:24:53.353Z,23.78
2018-09-15T13:25:53.371Z,23.63
2018-09-15T13:27:08.061Z,23.47
2018-09-15T13:27:53.173Z,23.46
2018-09-15T13:28:53.549Z,23.5
2018-09-15T13:30:08.596Z,23.33
2018-09-15T13:30:53.509Z,23.46
2018-09-15T13:31:53.532Z,23.36
2018-09-15T13:33:08.211Z,23.33
2018-09-15T13:34:53.603Z,22.92
2018-09-15T13:35:53.651Z,23.02
2018-09-15T13:36:53.397Z,23.01
2018-09-15T13:37:53.970Z,23.04
2018-09-15T13:38:53.704Z,23.04
2018-09-15T13:39:53.734Z,23.12
2018-09-15T13:41:08.418Z,23.05
2018-09-15T13:41:53.521Z,23
2018-09-15T13:42:53.807Z,23.25
2018-09-15T13:43:53.833Z,23.31
2018-09-15T13:44:53.855Z,23.46
2018-09-15T13:45:53.898Z,23.32
2018-09-15T13:46:54.249Z,23.33
2018-09-15T13:47:53.675Z,23.33
2018-09-15T13:49:08.614Z,23.32